createdAt,value
2023-03-15T00:03:25.595Z,2.70
2023-03-15T00:07:28.460Z,2.70
2023-03-15T00:11:31.993Z,2.70
2023-03-15T00:15:36.233Z,2.70
2023-03-15T00:19:39.190Z,2.70
2023-03-15T00:23:42.010Z,2.70
2023-03-15T00:27:44.799Z,2.70
2023-03-15T00:31:50.064Z,2.70
2023-03-15T00:35:53.748Z,2.70
2023-03-15T00:40:00.864Z,2.70
2023-03-15T00:44:04.267Z,2.70
2023-03-15T00:48:08.497Z,2.70
2023-03-15T00:52:12.581Z,2.70
2023-03-15T00:56:16.846Z,2.70
2023-03-15T01:00:24.193Z,2.70
2023-03-15T01:04:28.473Z,2.70
2023-03-15T01:08:31.462Z,2.70
2023-03-15T01:12:34.674Z,2.70
2023-03-15T01:16:37.834Z,2.80
2023-03-15T01:20:44.975Z,2.80
2023-03-15T01:24:48.893Z,2.90
2023-03-15T01:28:52.133Z,2.90
2023-03-15T01:32:55.005Z,2.90
2023-03-15T01:36:59.218Z,2.90
2023-03-15T01:41:02.212Z,3.00
2023-03-15T01:45:25.883Z,3.00
2023-03-15T01:49:31.007Z,3.00
2023-03-15T01:53:36.844Z,3.10
2023-03-15T01:57:41.318Z,3.00
2023-03-15T02:01:45.897Z,3.00
2023-03-15T02:05:54.804Z,3.00
2023-03-15T02:10:01.369Z,3.00
2023-03-15T02:14:05.487Z,3.00
2023-03-15T02:18:08.276Z,3.00
2023-03-15T02:22:16.876Z,3.00
2023-03-15T02:26:32.695Z,2.90
2023-03-15T02:30:37.034Z,3.00
2023-03-15T02:34:40.708Z,3.00
2023-03-15T02:38:43.718Z,3.00
2023-03-15T02:42:47.750Z,3.00
2023-03-15T02:46:53.581Z,3.00
2023-03-15T02:50:56.544Z,3.00
2023-03-15T02:54:59.456Z,3.00
2023-03-15T02:59:02.265Z,3.00
2023-03-15T03:03:06.508Z,3.00
2023-03-15T03:07:10.504Z,2.90
2023-03-15T03:11:13.511Z,2.90
2023-03-15T03:15:16.318Z,2.90
2023-03-15T03:19:20.515Z,2.80
2023-03-15T03:23:25.757Z,2.80
2023-03-15T03:27:36.845Z,2.80
2023-03-15T03:31:42.235Z,2.80
2023-03-15T03:35:46.452Z,2.80
2023-03-15T03:39:49.366Z,2.90
2023-03-15T03:43:53.193Z,2.90
2023-03-15T03:47:56.011Z,2.90
2023-03-15T03:52:00.441Z,2.90
2023-03-15T03:56:05.271Z,3.00
2023-03-15T04:00:09.582Z,3.00
2023-03-15T04:04:14.256Z,3.00
2023-03-15T04:08:18.491Z,3.00
2023-03-15T04:12:21.299Z,3.10
2023-03-15T04:16:24.807Z,3.10
2023-03-15T04:20:28.038Z,3.10
2023-03-15T04:24:32.302Z,3.20
2023-03-15T04:28:38.068Z,3.10
2023-03-15T04:32:42.597Z,3.20
2023-03-15T04:36:45.443Z,3.20
2023-03-15T04:40:50.124Z,3.20
2023-03-15T04:44:53.798Z,3.20
2023-03-15T04:48:56.622Z,3.20
2023-03-15T04:52:59.878Z,3.30
2023-03-15T04:57:04.064Z,3.30
2023-03-15T05:01:06.907Z,3.30
2023-03-15T05:05:10.185Z,3.30
2023-03-15T05:09:18.570Z,3.30
2023-03-15T05:13:23.749Z,3.30
2023-03-15T05:17:26.539Z,3.30
2023-03-15T05:21:29.342Z,3.30
2023-03-15T05:25:32.169Z,3.30
2023-03-15T05:29:36.385Z,3.30
2023-03-15T05:33:40.669Z,3.30
2023-03-15T05:37:43.472Z,3.30
2023-03-15T05:41:46.285Z,3.30
2023-03-15T05:45:50.591Z,3.30
2023-03-15T05:49:53.495Z,3.30
2023-03-15T05:53:56.305Z,3.30
2023-03-15T05:57:59.084Z,3.30
2023-03-15T06:02:03.232Z,3.30
2023-03-15T06:06:06.198Z,3.30
2023-03-15T06:10:09.481Z,3.30
2023-03-15T06:14:12.355Z,3.30
2023-03-15T06:18:17.430Z,3.30
2023-03-15T06:22:20.748Z,3.20
2023-03-15T06:26:24.373Z,3.20
2023-03-15T06:30:28.274Z,3.20
2023-03-15T06:34:32.469Z,3.10
2023-03-15T06:38:35.308Z,3.20
2023-03-15T06:42:38.478Z,3.30
2023-03-15T06:46:41.398Z,3.50
2023-03-15T06:50:47.655Z,3.60
2023-03-15T06:54:50.822Z,3.80
2023-03-15T06:58:53.637Z,3.90
2023-03-15T07:02:56.438Z,4.00
2023-03-15T07:07:01.229Z,4.20
2023-03-15T07:11:04.625Z,4.30
2023-03-15T07:15:07.950Z,4.50
2023-03-15T07:19:10.777Z,4.60
2023-03-15T07:23:14.909Z,4.80
2023-03-15T07:27:19.351Z,5.00
2023-03-15T07:31:23.122Z,5.40
2023-03-15T07:35:26.063Z,5.80
2023-03-15T07:39:32.571Z,6.30
2023-03-15T07:43:35.856Z,6.60
2023-03-15T07:47:38.611Z,6.80
2023-03-15T07:51:42.402Z,7.20
2023-03-15T07:55:47.859Z,7.60
2023-03-15T07:59:52.458Z,8.00
2023-03-15T08:03:55.279Z,8.50
2023-03-15T08:07:58.062Z,9.00
2023-03-15T08:12:02.293Z,9.30
2023-03-15T08:16:05.373Z,9.60
2023-03-15T08:20:11.594Z,9.90
2023-03-15T08:24:15.193Z,10.30
2023-03-15T08:28:19.352Z,10.50
2023-03-15T08:32:22.594Z,10.70
2023-03-15T08:36:25.661Z,11.00
2023-03-15T08:40:29.919Z,11.50
2023-03-15T08:44:36.152Z,11.70
2023-03-15T08:48:39.098Z,12.00
2023-03-15T08:52:42.330Z,12.20
2023-03-15T08:56:45.131Z,12.40
2023-03-15T09:00:49.616Z,12.30
2023-03-15T09:04:53.502Z,11.90
2023-03-15T09:08:56.693Z,11.40
2023-03-15T09:12:59.448Z,10.90
2023-03-15T09:17:03.625Z,10.50
2023-03-15T09:21:07.728Z,10.40
2023-03-15T09:25:10.952Z,10.30
2023-03-15T09:29:14.203Z,10.30
2023-03-15T09:33:18.370Z,10.50
2023-03-15T09:37:21.978Z,10.90
2023-03-15T09:41:33.993Z,11.40
2023-03-15T09:45:43.612Z,12.00
2023-03-15T09:49:52.025Z,12.00
2023-03-15T09:53:57.012Z,12.10
2023-03-15T09:58:01.177Z,12.30
2023-03-15T10:02:13.520Z,12.70
2023-03-15T10:06:19.952Z,12.70
2023-03-15T10:10:24.255Z,12.80
2023-03-15T10:14:34.491Z,12.50
2023-03-15T10:18:48.362Z,12.30
2023-03-15T10:22:55.766Z,12.50
2023-03-15T10:27:00.294Z,12.90
2023-03-15T10:31:09.587Z,13.10
2023-03-15T10:35:14.648Z,13.60
2023-03-15T10:39:19.378Z,14.20
2023-03-15T10:43:23.314Z,14.10
2023-03-15T10:47:27.079Z,14.50
2023-03-15T10:51:31.459Z,14.80
2023-03-15T10:55:38.109Z,15.10
2023-03-15T10:59:54.720Z,15.30
2023-03-15T11:04:11.301Z,15.50
2023-03-15T11:08:15.468Z,15.50
2023-03-15T11:12:24.192Z,15.60
2023-03-15T11:16:27.111Z,15.40
2023-03-15T11:20:31.598Z,15.10
2023-03-15T11:24:35.081Z,15.00
2023-03-15T11:28:49.394Z,14.60
2023-03-15T11:32:52.994Z,14.40
2023-03-15T11:37:07.658Z,14.10
2023-03-15T11:41:15.645Z,13.80
2023-03-15T11:45:24.053Z,13.50
2023-03-15T11:49:34.712Z,13.60
2023-03-15T11:53:39.410Z,13.60
2023-03-15T11:57:44.047Z,13.90
2023-03-15T12:01:49.711Z,14.10
2023-03-15T12:05:53.162Z,14.00
2023-03-15T12:09:56.697Z,13.80
2023-03-15T12:14:05.017Z,13.10
2023-03-15T12:18:14.716Z,12.60
2023-03-15T12:22:18.309Z,12.00
2023-03-15T12:26:25.811Z,11.40
2023-03-15T12:30:32.570Z,10.70
2023-03-15T12:34:44.776Z,10.10
2023-03-15T12:38:55.385Z,9.60
2023-03-15T12:43:02.161Z,9.20
2023-03-15T12:47:05.630Z,8.80
2023-03-15T12:51:16.074Z,8.50
2023-03-15T12:55:19.364Z,8.00
2023-03-15T12:59:26.641Z,7.70
2023-03-15T13:03:29.521Z,7.50
2023-03-15T13:07:50.781Z,7.40
2023-03-15T13:11:57.229Z,7.40
2023-03-15T13:16:05.434Z,7.40
2023-03-15T13:20:18.966Z,7.40
2023-03-15T13:24:27.477Z,7.40
2023-03-15T13:28:37.283Z,7.50
2023-03-15T13:32:44.311Z,7.50
2023-03-15T13:36:48.047Z,7.50
2023-03-15T13:40:52.515Z,7.50
2023-03-15T13:45:14.339Z,7.50
2023-03-15T13:49:17.442Z,7.50
2023-03-15T13:53:25.363Z,7.50
2023-03-15T13:57:32.865Z,7.60
2023-03-15T14:01:39.187Z,7.60
2023-03-15T14:05:45.039Z,7.70
2023-03-15T14:09:47.874Z,7.70
2023-03-15T14:13:52.788Z,7.70
2023-03-15T14:17:59.970Z,7.70
2023-03-15T14:22:03.506Z,7.70
2023-03-15T14:26:13.675Z,7.70
2023-03-15T14:30:21.981Z,7.70
2023-03-15T14:34:26.028Z,7.70
2023-03-15T14:38:33.646Z,7.80
2023-03-15T14:42:36.473Z,7.90
2023-03-15T14:46:40.674Z,8.20
2023-03-15T14:50:45.778Z,8.60
2023-03-15T14:54:49.707Z,9.00
2023-03-15T14:58:54.226Z,9.40
2023-03-15T15:02:58.678Z,9.70
2023-03-15T15:07:03.219Z,10.10
2023-03-15T15:11:06.858Z,10.40
2023-03-15T15:15:15.387Z,10.60
2023-03-15T15:19:19.583Z,10.80
2023-03-15T15:23:24.082Z,10.90
2023-03-15T15:27:27.048Z,11.00
2023-03-15T15:31:34.185Z,11.00
2023-03-15T15:35:38.547Z,11.00
2023-03-15T15:39:41.559Z,11.00
2023-03-15T15:43:44.844Z,11.00
2023-03-15T15:47:47.684Z,11.00
2023-03-15T15:51:52.166Z,11.10
2023-03-15T15:55:55.039Z,11.20
2023-03-15T15:59:57.879Z,11.30
2023-03-15T16:04:04.134Z,11.40
2023-03-15T16:08:21.954Z,11.50
2023-03-15T16:12:26.726Z,11.60
2023-03-15T16:16:30.520Z,11.70
2023-03-15T16:20:33.976Z,11.70
2023-03-15T16:24:44.359Z,11.80
2023-03-15T16:28:52.144Z,11.80
2023-03-15T16:32:56.391Z,11.60
2023-03-15T16:37:01.709Z,11.60
2023-03-15T16:41:06.547Z,11.50
2023-03-15T16:45:13.558Z,11.30
2023-03-15T16:49:16.433Z,11.00
2023-03-15T16:53:20.503Z,10.50
2023-03-15T16:57:25.022Z,10.50
2023-03-15T17:01:29.256Z,10.20
2023-03-15T17:05:34.997Z,10.00
2023-03-15T17:09:38.746Z,9.80
2023-03-15T17:13:43.837Z,9.60
2023-03-15T17:17:47.209Z,9.40
2023-03-15T17:21:50.438Z,9.20
2023-03-15T17:25:53.296Z,9.00
2023-03-15T17:29:57.539Z,8.60
2023-03-15T17:34:00.389Z,8.60
2023-03-15T17:38:05.956Z,8.40
2023-03-15T17:42:11.196Z,8.20
2023-03-15T17:46:15.753Z,8.00
2023-03-15T17:50:19.223Z,7.70
2023-03-15T17:54:22.276Z,7.70
2023-03-15T17:58:26.496Z,7.50
2023-03-15T18:02:32.657Z,7.40
2023-03-15T18:06:35.601Z,7.20
2023-03-15T18:10:41.516Z,7.10
2023-03-15T18:14:44.454Z,7.00
2023-03-15T18:18:57.653Z,6.80
2023-03-15T18:23:00.483Z,6.60
2023-03-15T18:27:10.955Z,6.40
2023-03-15T18:31:14.144Z,6.20
2023-03-15T18:35:19.305Z,6.10
2023-03-15T18:39:25.382Z,5.90
2023-03-15T18:43:31.180Z,5.80
2023-03-15T18:47:40.169Z,5.70
2023-03-15T18:51:44.330Z,5.50
2023-03-15T18:55:47.288Z,5.40
2023-03-15T18:59:50.141Z,5.40
2023-03-15T19:03:53.519Z,5.30
2023-03-15T19:07:58.068Z,5.20
2023-03-15T19:12:01.350Z,5.10
2023-03-15T19:16:06.352Z,4.90
2023-03-15T19:20:12.100Z,4.80
2023-03-15T19:24:16.499Z,4.80
2023-03-15T19:28:20.457Z,4.70
2023-03-15T19:32:24.353Z,4.60
2023-03-15T19:36:27.272Z,4.60
2023-03-15T19:40:31.405Z,4.50
2023-03-15T19:44:36.096Z,4.50
2023-03-15T19:48:38.911Z,4.40
2023-03-15T19:52:46.083Z,4.40
2023-03-15T19:56:50.310Z,4.30
2023-03-15T20:00:57.381Z,4.20
2023-03-15T20:05:00.235Z,4.20
2023-03-15T20:09:03.925Z,4.10
2023-03-15T20:13:11.334Z,4.10
2023-03-15T20:17:15.128Z,4.10
2023-03-15T20:21:18.113Z,4.00
2023-03-15T20:25:23.023Z,4.00
2023-03-15T20:29:27.902Z,3.90
2023-03-15T20:33:31.221Z,3.80
2023-03-15T20:37:34.923Z,3.80
2023-03-15T20:41:39.642Z,3.70
2023-03-15T20:45:43.810Z,3.60
2023-03-15T20:49:46.697Z,3.50
2023-03-15T20:53:49.532Z,3.50
2023-03-15T20:57:53.448Z,3.40
2023-03-15T21:01:57.705Z,3.30
2023-03-15T21:06:00.563Z,3.20
2023-03-15T21:10:03.667Z,3.10
2023-03-15T21:14:06.461Z,3.10
2023-03-15T21:18:11.687Z,3.00
2023-03-15T21:22:14.516Z,2.90
2023-03-15T21:26:17.603Z,2.90
2023-03-15T21:30:20.489Z,2.80
2023-03-15T21:34:24.797Z,2.80
2023-03-15T21:38:31.383Z,2.70
2023-03-15T21:42:34.395Z,2.70
2023-03-15T21:46:37.244Z,2.60
2023-03-15T21:50:53.634Z,2.60
2023-03-15T21:54:56.528Z,2.50
2023-03-15T21:58:59.368Z,2.40
2023-03-15T22:03:02.155Z,2.40
2023-03-15T22:07:08.206Z,2.40
2023-03-15T22:11:12.175Z,2.30
2023-03-15T22:15:15.033Z,2.30
2023-03-15T22:19:18.932Z,2.30
2023-03-15T22:23:23.570Z,2.20
2023-03-15T22:27:27.357Z,2.10
2023-03-15T22:31:31.805Z,2.10
2023-03-15T22:35:34.851Z,2.00
2023-03-15T22:39:42.294Z,2.00
2023-03-15T22:43:45.948Z,2.00
2023-03-15T22:47:49.005Z,1.90
2023-03-15T22:51:52.518Z,1.90
2023-03-15T22:55:56.766Z,1.80
2023-03-15T23:00:01.468Z,1.80
2023-03-15T23:04:05.888Z,1.80
2023-03-15T23:08:10.317Z,1.80
2023-03-15T23:12:18.015Z,1.80
2023-03-15T23:16:21.239Z,1.70
2023-03-15T23:20:25.506Z,1.60
2023-03-15T23:24:30.854Z,1.60
2023-03-15T23:32:38.579Z,1.50
2023-03-15T23:36:43.511Z,1.50
2023-03-15T23:40:55.031Z,1.40
2023-03-15T23:44:59.712Z,1.40
2023-03-15T23:49:02.899Z,1.40
2023-03-15T23:53:06.080Z,1.40
2023-03-15T23:57:10.443Z,1.30
